sensor_id;sensor_type;location;lat;lon;timestamp;pressure;altitude;pressure_sealevel;temperature;humidity
6030;BME280;3043;42.682;23.376;2022-12-18T00:00:44;95587.56;;;7.20;100.00
6030;BME280;3043;42.682;23.376;2022-12-18T00:03:09;95597.84;;;7.08;100.00
6030;BME280;3043;42.682;23.376;2022-12-18T00:05:35;95596.16;;;6.96;100.00
6030;BME280;3043;42.682;23.376;2022-12-18T00:08:01;95609.03;;;7.04;100.00
6030;BME280;3043;42.682;23.376;2022-12-18T00:10:27;95594.47;;;6.97;100.00
6030;BME280;3043;42.682;23.376;2022-12-18T00:12:53;95603.88;;;6.98;100.00
6030;BME280;3043;42.682;23.376;2022-12-18T00:15:19;95604.75;;;6.94;100.00
6030;BME280;3043;42.682;23.376;2022-12-18T00:17:44;95611.63;;;6.86;100.00
6030;BME280;3043;42.682;23.376;2022-12-18T00:20:10;95603.03;;;6.66;100.00
6030;BME280;3043;42.682;23.376;2022-12-18T00:22:35;95615.06;;;6.85;100.00
6030;BME280;3043;42.682;23.376;2022-12-18T00:25:01;95627.06;;;6.89;100.00
6030;BME280;3043;42.682;23.376;2022-12-18T00:27:26;95624.50;;;6.68;100.00
6030;BME280;3043;42.682;23.376;2022-12-18T00:29:52;95627.91;;;6.65;100.00
6030;BME280;3043;42.682;23.376;2022-12-18T00:32:17;95633.91;;;6.72;100.00
6030;BME280;3043;42.682;23.376;2022-12-18T00:34:43;95632.22;;;6.71;100.00
6030;BME280;3043;42.682;23.376;2022-12-18T00:37:08;95621.91;;;6.68;100.00
6030;BME280;3043;42.682;23.376;2022-12-18T00:39:34;95637.34;;;6.62;100.00
6030;BME280;3043;42.682;23.376;2022-12-18T00:41:59;95638.19;;;6.64;100.00
6030;BME280;3043;42.682;23.376;2022-12-18T00:44:43;95637.34;;;6.62;100.00
6030;BME280;3043;42.682;23.376;2022-12-18T00:47:09;95629.63;;;6.65;100.00
6030;BME280;3043;42.682;23.376;2022-12-18T00:49:34;95640.75;;;6.52;100.00
6030;BME280;3043;42.682;23.376;2022-12-18T00:52:00;95644.19;;;6.40;100.00
6030;BME280;3043;42.682;23.376;2022-12-18T00:54:25;95642.47;;;6.41;100.00
6030;BME280;3043;42.682;23.376;2022-12-18T00:56:51;95651.03;;;6.55;100.00
6030;BME280;3043;42.682;23.376;2022-12-18T00:59:17;95649.31;;;6.39;100.00
6030;BME280;3043;42.682;23.376;2022-12-18T01:01:43;95651.00;;;6.25;100.00
6030;BME280;3043;42.682;23.376;2022-12-18T01:04:08;95663.03;;;6.36;100.00
6030;BME280;3043;42.682;23.376;2022-12-18T01:06:34;95649.28;;;6.18;100.00
6030;BME280;3043;42.682;23.376;2022-12-18T01:08:59;95659.56;;;6.27;100.00
6030;BME280;3043;42.682;23.376;2022-12-18T01:11:25;95664.69;;;6.21;100.00
6030;BME280;3043;42.682;23.376;2022-12-18T01:13:53;95664.69;;;6.21;100.00
6030;BME280;3043;42.682;23.376;2022-12-18T01:16:19;95669.84;;;6.18;100.00
6030;BME280;3043;42.682;23.376;2022-12-18T01:18:45;95665.56;;;6.18;100.00
6030;BME280;3043;42.682;23.376;2022-12-18T01:21:13;95666.38;;;6.05;100.00
6030;BME280;3043;42.682;23.376;2022-12-18T01:23:39;95668.94;;;6.08;100.00
6030;BME280;3043;42.682;23.376;2022-12-18T01:26:10;95670.66;;;6.09;100.00
6030;BME280;3043;42.682;23.376;2022-12-18T01:28:37;95663.84;;;6.28;100.00
6030;BME280;3043;42.682;23.376;2022-12-18T01:31:29;95668.06;;;6.02;100.00
6030;BME280;3043;42.682;23.376;2022-12-18T01:33:55;95662.88;;;5.90;100.00
6030;BME280;3043;42.682;23.376;2022-12-18T01:36:29;95677.47;;;5.94;100.00
6030;BME280;3043;42.682;23.376;2022-12-18T01:38:56;95683.41;;;5.84;100.00
6030;BME280;3043;42.682;23.376;2022-12-18T01:41:27;95663.72;;;5.83;100.00
6030;BME280;3043;42.682;23.376;2022-12-18T01:52:50;95681.56;;;5.65;100.00
6030;BME280;3043;42.682;23.376;2022-12-18T01:55:19;95689.25;;;5.60;100.00
6030;BME280;3043;42.682;23.376;2022-12-18T01:57:46;95691.00;;;5.66;100.00
6030;BME280;3043;42.682;23.376;2022-12-18T02:00:17;95700.38;;;5.64;100.00
6030;BME280;3043;42.682;23.376;2022-12-18T02:02:45;95696.13;;;5.66;100.00
6030;BME280;3043;42.682;23.376;2022-12-18T02:05:15;95692.59;;;5.50;100.00
6030;BME280;3043;42.682;23.376;2022-12-18T02:07:48;95700.31;;;5.51;100.00
6030;BME280;3043;42.682;23.376;2022-12-18T02:10:54;95710.53;;;5.42;100.00
6030;BME280;3043;42.682;23.376;2022-12-18T02:16:25;95722.47;;;5.34;100.00
6030;BME280;3043;42.682;23.376;2022-12-18T02:18:58;95718.22;;;5.42;100.00
6030;BME280;3043;42.682;23.376;2022-12-18T02:26:51;95720.88;;;5.54;100.00
6030;BME280;3043;42.682;23.376;2022-12-18T02:29:24;95728.41;;;5.30;100.00
6030;BME280;3043;42.682;23.376;2022-12-18T02:31:56;95724.09;;;5.20;100.00
6030;BME280;3043;42.682;23.376;2022-12-18T02:34:26;95732.72;;;5.28;100.00
6030;BME280;3043;42.682;23.376;2022-12-18T02:36:54;95729.22;;;5.20;100.00
6030;BME280;3043;42.682;23.376;2022-12-18T02:39:22;95725.81;;;5.24;100.00
6030;BME280;3043;42.682;23.376;2022-12-18T02:41:50;95718.88;;;5.11;100.00
6030;BME280;3043;42.682;23.376;2022-12-18T02:44:15;95741.09;;;5.09;100.00
6030;BME280;3043;42.682;23.376;2022-12-18T02:46:52;95739.38;;;5.05;100.00
6030;BME280;3043;42.682;23.376;2022-12-18T02:55:28;95737.59;;;5.03;100.00
6030;BME280;3043;42.682;23.376;2022-12-18T03:00:52;95735.84;;;4.94;100.00
6030;BME280;3043;42.682;23.376;2022-12-18T03:03:25;95744.28;;;4.81;100.00
6030;BME280;3043;42.682;23.376;2022-12-18T03:05:53;95761.44;;;4.88;100.00
6030;BME280;3043;42.682;23.376;2022-12-18T03:08:27;95752.00;;;4.84;100.00
6030;BME280;3043;42.682;23.376;2022-12-18T03:11:12;95768.97;;;4.70;100.00
6030;BME280;3043;42.682;23.376;2022-12-18T03:13:51;95768.13;;;4.74;100.00
6030;BME280;3043;42.682;23.376;2022-12-18T03:16:23;95761.50;;;4.96;100.00
6030;BME280;3043;42.682;23.376;2022-12-18T03:19:00;95770.00;;;4.90;100.00
6030;BME280;3043;42.682;23.376;2022-12-18T03:21:34;95764.09;;;4.97;100.00
6030;BME280;3043;42.682;23.376;2022-12-18T03:24:05;95764.00;;;4.88;100.00
6030;BME280;3043;42.682;23.376;2022-12-18T03:26:34;95766.63;;;4.94;100.00
6030;BME280;3043;42.682;23.376;2022-12-18T03:29:05;95764.94;;;4.96;100.00
6030;BME280;3043;42.682;23.376;2022-12-18T03:31:32;95782.00;;;4.94;100.00
6030;BME280;3043;42.682;23.376;2022-12-18T03:34:01;95780.28;;;4.90;100.00
6030;BME280;3043;42.682;23.376;2022-12-18T03:36:30;95787.13;;;4.91;100.00
6030;BME280;3043;42.682;23.376;2022-12-18T03:38:58;95789.69;;;4.91;100.00
6030;BME280;3043;42.682;23.376;2022-12-18T03:44:27;95797.41;;;4.94;100.00
6030;BME280;3043;42.682;23.376;2022-12-18T03:47:08;95800.88;;;4.99;100.00
6030;BME280;3043;42.682;23.376;2022-12-18T03:49:41;95805.94;;;4.93;100.00
6030;BME280;3043;42.682;23.376;2022-12-18T03:52:14;95811.03;;;4.87;100.00
6030;BME280;3043;42.682;23.376;2022-12-18T03:54:44;95818.00;;;5.03;100.00
6030;BME280;3043;42.682;23.376;2022-12-18T03:57:14;95821.41;;;4.99;100.00
6030;BME280;3043;42.682;23.376;2022-12-18T03:59:42;95823.03;;;4.91;100.00
6030;BME280;3043;42.682;23.376;2022-12-18T04:02:09;95835.06;;;4.98;100.00
6030;BME280;3043;42.682;23.376;2022-12-18T04:04:39;95835.00;;;4.92;100.00
6030;BME280;3043;42.682;23.376;2022-12-18T04:07:06;95835.03;;;4.95;100.00
6030;BME280;3043;42.682;23.376;2022-12-18T04:09:33;95830.03;;;5.10;100.00
6030;BME280;3043;42.682;23.376;2022-12-18T04:11:59;95825.78;;;5.11;100.00
6030;BME280;3043;42.682;23.376;2022-12-18T04:14:24;95841.88;;;4.93;100.00
6030;BME280;3043;42.682;23.376;2022-12-18T04:16:50;95836.69;;;4.90;100.00
6030;BME280;3043;42.682;23.376;2022-12-18T04:19:15;95853.13;;;5.10;100.00
6030;BME280;3043;42.682;23.376;2022-12-18T04:21:41;95857.25;;;4.93;100.00
6030;BME280;3043;42.682;23.376;2022-12-18T04:24:06;95858.09;;;4.94;100.00
6030;BME280;3043;42.682;23.376;2022-12-18T04:26:32;95855.34;;;4.77;100.00
6030;BME280;3043;42.682;23.376;2022-12-18T04:28:57;95861.53;;;4.94;100.00
6030;BME280;3043;42.682;23.376;2022-12-18T04:31:23;95870.78;;;4.80;100.00
6030;BME280;3043;42.682;23.376;2022-12-18T04:33:48;95860.59;;;4.89;100.00
6030;BME280;3043;42.682;23.376;2022-12-18T04:36:13;95869.03;;;4.76;100.00
6030;BME280;3043;42.682;23.376;2022-12-18T04:38:39;95874.28;;;4.88;100.00
6030;BME280;3043;42.682;23.376;2022-12-18T04:41:04;95870.78;;;4.80;100.00
6030;BME280;3043;42.682;23.376;2022-12-18T04:43:30;95874.31;;;4.91;100.00
6030;BME280;3043;42.682;23.376;2022-12-18T04:46:06;95883.78;;;4.97;100.00
6030;BME280;3043;42.682;23.376;2022-12-18T04:48:32;95883.03;;;5.05;100.00
6030;BME280;3043;42.682;23.376;2022-12-18T04:50:57;95891.31;;;4.83;100.00
6030;BME280;3043;42.682;23.376;2022-12-18T04:53:23;95894.84;;;4.91;100.00
6030;BME280;3043;42.682;23.376;2022-12-18T04:55:48;95896.31;;;4.71;100.00
6030;BME280;3043;42.682;23.376;2022-12-18T04:58:14;95896.38;;;4.76;100.00
6030;BME280;3043;42.682;23.376;2022-12-18T05:00:39;95903.31;;;4.84;100.00
6030;BME280;3043;42.682;23.376;2022-12-18T05:03:05;95912.44;;;4.61;100.00
6030;BME280;3043;42.682;23.376;2022-12-18T05:05:30;95907.47;;;4.73;100.00
6030;BME280;3043;42.682;23.376;2022-12-18T05:07:56;95903.94;;;4.67;100.00
6030;BME280;3043;42.682;23.376;2022-12-18T05:10:21;95911.69;;;4.71;100.00
6030;BME280;3043;42.682;23.376;2022-12-18T05:12:47;95908.28;;;4.71;100.00
6030;BME280;3043;42.682;23.376;2022-12-18T05:15:33;95924.28;;;4.52;100.00
6030;BME280;3043;42.682;23.376;2022-12-18T05:17:59;95928.75;;;4.66;100.00
6030;BME280;3043;42.682;23.376;2022-12-18T05:20:25;95941.59;;;4.68;100.00
6030;BME280;3043;42.682;23.376;2022-12-18T05:22:51;95944.03;;;4.60;100.00
6030;BME280;3043;42.682;23.376;2022-12-18T05:25:17;95943.81;;;4.45;100.00
6030;BME280;3043;42.682;23.376;2022-12-18T05:27:42;95946.47;;;4.51;100.00
6030;BME280;3043;42.682;23.376;2022-12-18T05:30:09;95945.47;;;4.40;100.00
6030;BME280;3043;42.682;23.376;2022-12-18T05:32:35;95945.41;;;4.34;100.00
6030;BME280;3043;42.682;23.376;2022-12-18T05:35:00;95947.19;;;4.41;100.00
6030;BME280;3043;42.682;23.376;2022-12-18T05:37:26;95947.16;;;4.38;100.00
6030;BME280;3043;42.682;23.376;2022-12-18T05:39:51;95953.38;;;4.55;100.00
6030;BME280;3043;42.682;23.376;2022-12-18T05:42:17;95955.13;;;4.59;100.00
6030;BME280;3043;42.682;23.376;2022-12-18T05:44:43;95965.91;;;4.34;100.00
6030;BME280;3043;42.682;23.376;2022-12-18T05:47:09;95957.53;;;4.47;100.00
6030;BME280;3043;42.682;23.376;2022-12-18T05:49:34;95955.03;;;4.52;100.00
6030;BME280;3043;42.682;23.376;2022-12-18T05:51:59;95959.41;;;4.60;100.00
6030;BME280;3043;42.682;23.376;2022-12-18T05:54:27;95959.25;;;4.48;100.00
6030;BME280;3043;42.682;23.376;2022-12-18T05:56:52;95968.00;;;4.62;100.00
6030;BME280;3043;42.682;23.376;2022-12-18T05:59:19;95969.38;;;4.39;100.00
6030;BME280;3043;42.682;23.376;2022-12-18T06:01:44;95983.06;;;4.41;100.00
6030;BME280;3043;42.682;23.376;2022-12-18T06:04:10;95988.13;;;4.35;100.00
6030;BME280;3043;42.682;23.376;2022-12-18T06:06:35;95977.81;;;4.32;100.00
6030;BME280;3043;42.682;23.376;2022-12-18T06:09:02;95985.81;;;4.53;100.00
6030;BME280;3043;42.682;23.376;2022-12-18T06:11:34;95987.69;;;4.63;100.00
6030;BME280;3043;42.682;23.376;2022-12-18T06:14:00;95992.75;;;4.60;100.00
6030;BME280;3043;42.682;23.376;2022-12-18T06:16:26;95996.09;;;4.55;100.00
6030;BME280;3043;42.682;23.376;2022-12-18T06:18:52;95997.69;;;4.48;100.00
6030;BME280;3043;42.682;23.376;2022-12-18T06:21:17;96000.22;;;4.45;100.00
6030;BME280;3043;42.682;23.376;2022-12-18T06:23:43;96003.81;;;4.56;100.00
6030;BME280;3043;42.682;23.376;2022-12-18T06:26:11;96003.53;;;4.38;100.00
6030;BME280;3043;42.682;23.376;2022-12-18T06:28:37;96008.91;;;4.55;100.00
6030;BME280;3043;42.682;23.376;2022-12-18T06:31:03;96018.03;;;4.36;100.00
6030;BME280;3043;42.682;23.376;2022-12-18T06:33:29;96011.97;;;4.31;100.00
6030;BME280;3043;42.682;23.376;2022-12-18T06:36:03;96025.72;;;4.36;100.00
6030;BME280;3043;42.682;23.376;2022-12-18T06:38:29;96025.53;;;4.24;100.00
6030;BME280;3043;42.682;23.376;2022-12-18T06:40:54;96027.59;;;4.46;100.00
6030;BME280;3043;42.682;23.376;2022-12-18T06:43:20;96033.44;;;4.39;100.00
6030;BME280;3043;42.682;23.376;2022-12-18T06:45:45;96029.16;;;4.38;100.00
6030;BME280;3043;42.682;23.376;2022-12-18T06:48:14;96024.19;;;4.47;100.00
6030;BME280;3043;42.682;23.376;2022-12-18T06:50:42;96033.59;;;4.50;100.00
6030;BME280;3043;42.682;23.376;2022-12-18T06:53:08;96030.94;;;4.42;100.00
6030;BME280;3043;42.682;23.376;2022-12-18T06:55:33;96031.09;;;4.53;100.00
6030;BME280;3043;42.682;23.376;2022-12-18T06:57:59;96041.34;;;4.54;100.00
6030;BME280;3043;42.682;23.376;2022-12-18T07:00:24;96042.44;;;4.70;100.00
6030;BME280;3043;42.682;23.376;2022-12-18T07:02:50;96039.91;;;4.71;100.00
6030;BME280;3043;42.682;23.376;2022-12-18T07:05:15;96045.72;;;4.58;100.00
6030;BME280;3043;42.682;23.376;2022-12-18T07:07:40;96062.91;;;4.67;100.00
6030;BME280;3043;42.682;23.376;2022-12-18T07:10:06;96062.16;;;4.72;100.00
6030;BME280;3043;42.682;23.376;2022-12-18T07:12:32;96051.88;;;4.69;100.00
6030;BME280;3043;42.682;23.376;2022-12-18T07:14:57;96058.41;;;4.49;100.00
6030;BME280;3043;42.682;23.376;2022-12-18T07:17:23;96046.53;;;4.57;100.00
6030;BME280;3043;42.682;23.376;2022-12-18T07:19:48;96068.50;;;4.40;100.00
6030;BME280;3043;42.682;23.376;2022-12-18T07:22:13;96057.25;;;4.31;100.00
6030;BME280;3043;42.682;23.376;2022-12-18T07:24:39;96061.72;;;4.44;100.00
6030;BME280;3043;42.682;23.376;2022-12-18T07:27:04;96058.25;;;4.40;100.00
6030;BME280;3043;42.682;23.376;2022-12-18T07:29:30;96065.91;;;4.37;100.00
6030;BME280;3043;42.682;23.376;2022-12-18T07:31:56;96066.66;;;4.33;100.00
6030;BME280;3043;42.682;23.376;2022-12-18T07:34:21;96072.06;;;4.51;100.00
6030;BME280;3043;42.682;23.376;2022-12-18T07:36:48;96080.38;;;4.35;100.00
6030;BME280;3043;42.682;23.376;2022-12-18T07:39:13;96082.22;;;4.45;100.00
6030;BME280;3043;42.682;23.376;2022-12-18T07:41:39;96083.16;;;4.49;100.00
6030;BME280;3043;42.682;23.376;2022-12-18T07:44:09;96075.25;;;4.35;100.00
6030;BME280;3043;42.682;23.376;2022-12-18T07:46:35;96074.34;;;4.33;100.00
6030;BME280;3043;42.682;23.376;2022-12-18T07:49:01;96075.25;;;4.35;100.00
6030;BME280;3043;42.682;23.376;2022-12-18T07:51:26;96083.78;;;4.34;100.00
6030;BME280;3043;42.682;23.376;2022-12-18T07:53:51;96087.34;;;4.44;100.00
6030;BME280;3043;42.682;23.376;2022-12-18T07:56:17;96088.81;;;4.28;100.00
6030;BME280;3043;42.682;23.376;2022-12-18T07:58:42;96094.94;;;4.38;100.00
6030;BME280;3043;42.682;23.376;2022-12-18T08:01:11;96093.94;;;4.28;100.00
6030;BME280;3043;42.682;23.376;2022-12-18T08:03:38;96107.97;;;4.51;100.00
6030;BME280;3043;42.682;23.376;2022-12-18T08:06:06;96095.84;;;4.41;100.00
6030;BME280;3043;42.682;23.376;2022-12-18T08:08:33;96118.91;;;4.41;100.00
6030;BME280;3043;42.682;23.376;2022-12-18T08:10:59;96125.75;;;4.42;100.00
6030;BME280;3043;42.682;23.376;2022-12-18T08:13:25;96117.09;;;4.34;100.00
6030;BME280;3043;42.682;23.376;2022-12-18T08:15:58;96129.84;;;4.30;100.00
6030;BME280;3043;42.682;23.376;2022-12-18T08:18:27;96131.47;;;4.26;100.00
6030;BME280;3043;42.682;23.376;2022-12-18T08:20:53;96135.03;;;4.34;100.00
6030;BME280;3043;42.682;23.376;2022-12-18T08:23:19;96135.16;;;4.40;100.00
6030;BME280;3043;42.682;23.376;2022-12-18T08:25:44;96134.88;;;4.25;100.00
6030;BME280;3043;42.682;23.376;2022-12-18T08:28:10;96136.38;;;4.14;100.00
6030;BME280;3043;42.682;23.376;2022-12-18T08:30:36;96138.25;;;4.24;100.00
6030;BME280;3043;42.682;23.376;2022-12-18T08:33:01;96143.44;;;4.27;100.00
6030;BME280;3043;42.682;23.376;2022-12-18T08:35:27;96144.31;;;4.28;100.00
6030;BME280;3043;42.682;23.376;2022-12-18T08:37:53;96140.28;;;4.40;100.00
6030;BME280;3043;42.682;23.376;2022-12-18T08:40:18;96148.69;;;4.33;100.00
6030;BME280;3043;42.682;23.376;2022-12-18T08:42:44;96146.44;;;4.53;100.00
6030;BME280;3043;42.682;23.376;2022-12-18T08:45:28;96150.72;;;4.52;100.00
6030;BME280;3043;42.682;23.376;2022-12-18T08:47:53;96154.34;;;4.63;100.00
6030;BME280;3043;42.682;23.376;2022-12-18T08:50:19;96154.06;;;4.48;100.00
6030;BME280;3043;42.682;23.376;2022-12-18T08:52:45;96154.34;;;4.63;100.00
6030;BME280;3043;42.682;23.376;2022-12-18T08:55:10;96168.81;;;4.60;100.00
6030;BME280;3043;42.682;23.376;2022-12-18T08:57:36;96158.66;;;4.66;100.00
6030;BME280;3043;42.682;23.376;2022-12-18T09:00:03;96159.41;;;4.62;100.00
6030;BME280;3043;42.682;23.376;2022-12-18T09:02:28;96158.41;;;4.52;100.00
6030;BME280;3043;42.682;23.376;2022-12-18T09:04:54;96150.16;;;4.70;100.00
6030;BME280;3043;42.682;23.376;2022-12-18T09:07:19;96153.44;;;4.61;100.00
6030;BME280;3043;42.682;23.376;2022-12-18T09:09:45;96149.31;;;4.69;100.00
6030;BME280;3043;42.682;23.376;2022-12-18T09:12:10;96156.63;;;4.48;100.00
6030;BME280;3043;42.682;23.376;2022-12-18T09:14:36;96144.19;;;4.69;100.00
6030;BME280;3043;42.682;23.376;2022-12-18T09:17:01;96162.78;;;4.58;100.00
6030;BME280;3043;42.682;23.376;2022-12-18T09:19:27;96154.00;;;4.45;100.00
6030;BME280;3043;42.682;23.376;2022-12-18T09:21:52;96151.84;;;4.66;100.00
6030;BME280;3043;42.682;23.376;2022-12-18T09:24:17;96166.16;;;4.55;100.00
6030;BME280;3043;42.682;23.376;2022-12-18T09:26:43;96157.66;;;4.59;100.00
6030;BME280;3043;42.682;23.376;2022-12-18T09:29:09;96167.09;;;4.62;100.00
6030;BME280;3043;42.682;23.376;2022-12-18T09:31:36;96164.53;;;4.60;100.00
6030;BME280;3043;42.682;23.376;2022-12-18T09:34:01;96160.25;;;4.59;100.00
6030;BME280;3043;42.682;23.376;2022-12-18T09:36:27;96164.47;;;4.57;100.00
6030;BME280;3043;42.682;23.376;2022-12-18T09:38:52;96161.47;;;4.82;100.00
6030;BME280;3043;42.682;23.376;2022-12-18T09:43:57;96168.47;;;4.92;100.00
6030;BME280;3043;42.682;23.376;2022-12-18T09:46:28;96166.81;;;4.94;100.00
6030;BME280;3043;42.682;23.376;2022-12-18T09:48:57;96168.41;;;4.89;100.00
6030;BME280;3043;42.682;23.376;2022-12-18T09:51:31;96175.44;;;4.99;100.00
6030;BME280;3043;42.682;23.376;2022-12-18T09:54:02;96170.91;;;4.85;100.00
6030;BME280;3043;42.682;23.376;2022-12-18T09:56:35;96161.72;;;4.97;100.00
6030;BME280;3043;42.682;23.376;2022-12-18T09:59:03;96162.63;;;4.99;100.00
6030;BME280;3043;42.682;23.376;2022-12-18T10:01:30;96163.38;;;4.95;100.00
6030;BME280;3043;42.682;23.376;2022-12-18T10:03:56;96170.72;;;5.26;100.00
6030;BME280;3043;42.682;23.376;2022-12-18T10:09:23;96184.56;;;5.37;100.00
6030;BME280;3043;42.682;23.376;2022-12-18T10:25:31;96189.50;;;5.85;100.00
6030;BME280;3043;42.682;23.376;2022-12-18T10:28:20;96181.06;;;5.94;100.00
6030;BME280;3043;42.682;23.376;2022-12-18T10:30:45;96183.25;;;5.67;100.00
6030;BME280;3043;42.682;23.376;2022-12-18T10:33:17;96183.78;;;5.43;100.00
6030;BME280;3043;42.682;23.376;2022-12-18T10:35:43;96175.78;;;5.82;100.00
6030;BME280;3043;42.682;23.376;2022-12-18T10:41:01;96175.25;;;5.47;100.00
6030;BME280;3043;42.682;23.376;2022-12-18T10:43:28;96178.91;;;5.63;100.00
6030;BME280;3043;42.682;23.376;2022-12-18T10:48:25;96176.63;;;5.84;100.00
6030;BME280;3043;42.682;23.376;2022-12-18T10:50:52;96169.38;;;5.54;100.00
6030;BME280;3043;42.682;23.376;2022-12-18T10:53:26;96175.53;;;5.65;100.00
6030;BME280;3043;42.682;23.376;2022-12-18T10:55:54;96163.47;;;5.60;100.00
6030;BME280;3043;42.682;23.376;2022-12-18T10:58:26;96170.91;;;5.41;100.00
6030;BME280;3043;42.682;23.376;2022-12-18T11:01:14;96165.00;;;5.47;100.00
6030;BME280;3043;42.682;23.376;2022-12-18T11:08:36;96174.53;;;5.56;100.00
6030;BME280;3043;42.682;23.376;2022-12-18T11:11:02;96170.31;;;5.62;100.00
6030;BME280;3043;42.682;23.376;2022-12-18T11:13:29;96161.25;;;5.87;100.00
6030;BME280;3043;42.682;23.376;2022-12-18T11:15:55;96166.91;;;5.62;100.00
6030;BME280;3043;42.682;23.376;2022-12-18T11:18:32;96163.16;;;5.37;100.00
6030;BME280;3043;42.682;23.376;2022-12-18T11:21:09;96167.66;;;5.54;100.00
6030;BME280;3043;42.682;23.376;2022-12-18T11:23:37;96174.66;;;5.65;100.00
6030;BME280;3043;42.682;23.376;2022-12-18T11:26:09;96178.06;;;5.64;100.00
6030;BME280;3043;42.682;23.376;2022-12-18T11:28:40;96176.25;;;5.55;100.00
6030;BME280;3043;42.682;23.376;2022-12-18T11:31:25;96182.41;;;5.68;100.00
6030;BME280;3043;42.682;23.376;2022-12-18T11:34:12;96188.41;;;5.67;100.00
6030;BME280;3043;42.682;23.376;2022-12-18T11:36:45;96181.00;;;5.89;100.00
6030;BME280;3043;42.682;23.376;2022-12-18T11:42:12;96182.19;;;6.17;100.00
6030;BME280;3043;42.682;23.376;2022-12-18T11:47:36;96192.53;;;6.23;100.00
6030;BME280;3043;42.682;23.376;2022-12-18T11:50:12;96190.06;;;6.30;100.00
6030;BME280;3043;42.682;23.376;2022-12-18T11:52:40;96191.78;;;6.33;100.00
6030;BME280;3043;42.682;23.376;2022-12-18T11:58:55;96185.78;;;6.34;100.00
6030;BME280;3043;42.682;23.376;2022-12-18T12:06:25;96189.00;;;6.15;100.00
6030;BME280;3043;42.682;23.376;2022-12-18T12:11:47;96194.94;;;6.11;100.00
6030;BME280;3043;42.682;23.376;2022-12-18T12:14:25;96194.94;;;6.11;100.00
6030;BME280;3043;42.682;23.376;2022-12-18T12:17:03;96187.00;;;5.90;100.00
6030;BME280;3043;42.682;23.376;2022-12-18T12:25:02;96187.69;;;5.78;100.00
6030;BME280;3043;42.682;23.376;2022-12-18T12:30:22;96192.31;;;6.05;100.00
6030;BME280;3043;42.682;23.376;2022-12-18T12:35:55;96183.47;;;5.82;100.00
6030;BME280;3043;42.682;23.376;2022-12-18T12:38:34;96189.66;;;5.97;100.00
6030;BME280;3043;42.682;23.376;2022-12-18T12:41:04;96196.59;;;6.03;100.00
6030;BME280;3043;42.682;23.376;2022-12-18T12:43:44;96193.97;;;6.00;100.00
6030;BME280;3043;42.682;23.376;2022-12-18T12:46:15;96194.94;;;6.11;100.00
6030;BME280;3043;42.682;23.376;2022-12-18T12:48:58;96189.75;;;6.06;100.00
6030;BME280;3043;42.682;23.376;2022-12-18T12:51:39;96194.97;;;6.14;100.00
6030;BME280;3043;42.682;23.376;2022-12-18T12:54:15;96197.63;;;6.17;100.00
6030;BME280;3043;42.682;23.376;2022-12-18T12:56:51;96200.72;;;5.92;100.00
6030;BME280;3043;42.682;23.376;2022-12-18T13:05:08;96212.03;;;6.06;100.00
6030;BME280;3043;42.682;23.376;2022-12-18T13:12:59;96214.78;;;6.21;100.00
6030;BME280;3043;42.682;23.376;2022-12-18T13:20:35;96219.66;;;5.97;100.00
6030;BME280;3043;42.682;23.376;2022-12-18T13:31:02;96235.88;;;5.94;100.00
6030;BME280;3043;42.682;23.376;2022-12-18T13:36:02;96236.44;;;5.74;100.00
6030;BME280;3043;42.682;23.376;2022-12-18T13:41:23;96239.84;;;5.73;100.00
6030;BME280;3043;42.682;23.376;2022-12-18T13:43:54;96236.75;;;5.95;100.00
6030;BME280;3043;42.682;23.376;2022-12-18T13:51:19;96254.81;;;6.01;100.00
6030;BME280;3043;42.682;23.376;2022-12-18T13:53:54;96258.47;;;6.19;100.00
6030;BME280;3043;42.682;23.376;2022-12-18T13:56:26;96261.00;;;6.15;100.00
6030;BME280;3043;42.682;23.376;2022-12-18T14:01:44;96265.63;;;5.79;100.00
6030;BME280;3043;42.682;23.376;2022-12-18T14:04:11;96264.03;;;5.87;100.00
6030;BME280;3043;42.682;23.376;2022-12-18T14:06:36;96263.28;;;5.92;100.00
6030;BME280;3043;42.682;23.376;2022-12-18T14:09:02;96268.38;;;5.89;100.00
6030;BME280;3043;42.682;23.376;2022-12-18T14:11:29;96265.78;;;5.88;100.00
6030;BME280;3043;42.682;23.376;2022-12-18T14:13:56;96269.38;;;6.02;100.00
6030;BME280;3043;42.682;23.376;2022-12-18T14:16:21;96272.94;;;6.13;100.00
6030;BME280;3043;42.682;23.376;2022-12-18T14:18:56;96271.22;;;6.12;100.00
6030;BME280;3043;42.682;23.376;2022-12-18T14:21:28;96275.63;;;6.20;100.00
6030;BME280;3043;42.682;23.376;2022-12-18T14:26:34;96284.09;;;6.12;100.00
6030;BME280;3043;42.682;23.376;2022-12-18T14:29:17;96276.44;;;6.18;100.00
6030;BME280;3043;42.682;23.376;2022-12-18T14:31:43;96284.88;;;6.09;100.00
6030;BME280;3043;42.682;23.376;2022-12-18T14:34:17;96285.13;;;6.26;100.00
6030;BME280;3043;42.682;23.376;2022-12-18T14:36:53;96285.81;;;6.14;100.00
6030;BME280;3043;42.682;23.376;2022-12-18T14:39:20;96293.56;;;6.16;100.00
6030;BME280;3043;42.682;23.376;2022-12-18T14:41:48;96285.13;;;6.26;100.00
6030;BME280;3043;42.682;23.376;2022-12-18T14:44:18;96286.41;;;5.94;100.00
6030;BME280;3043;42.682;23.376;2022-12-18T14:46:45;96283.06;;;6.01;100.00
6030;BME280;3043;42.682;23.376;2022-12-18T14:49:30;96289.88;;;5.99;100.00
6030;BME280;3043;42.682;23.376;2022-12-18T14:52:01;96283.81;;;5.91;100.00
6030;BME280;3043;42.682;23.376;2022-12-18T14:54:28;96282.63;;;5.71;100.00
6030;BME280;3043;42.682;23.376;2022-12-18T14:57:01;96287.81;;;5.74;100.00
6030;BME280;3043;42.682;23.376;2022-12-18T14:59:28;96289.38;;;5.66;100.00
6030;BME280;3043;42.682;23.376;2022-12-18T15:07:15;96299.19;;;5.35;100.00
6030;BME280;3043;42.682;23.376;2022-12-18T15:12:35;96298.91;;;5.17;100.00
6030;BME280;3043;42.682;23.376;2022-12-18T15:15:02;96304.25;;;5.31;100.00
6030;BME280;3043;42.682;23.376;2022-12-18T15:17:28;96295.25;;;5.56;100.00
6030;BME280;3043;42.682;23.376;2022-12-18T15:20:03;96296.78;;;5.46;100.00
6030;BME280;3043;42.682;23.376;2022-12-18T15:22:35;96307.50;;;5.19;100.00
6030;BME280;3043;42.682;23.376;2022-12-18T15:25:02;96313.44;;;5.18;100.00
6030;BME280;3043;42.682;23.376;2022-12-18T15:27:33;96320.53;;;5.31;100.00
6030;BME280;3043;42.682;23.376;2022-12-18T15:32:31;96311.50;;;5.04;100.00
6030;BME280;3043;42.682;23.376;2022-12-18T15:37:34;96317.41;;;5.01;100.00